Time;durP1;ratioP1;P1;durP2;ratioP2;P2;SDS_P1;SDS_P2;PMS_P1;PMS_P2;Temp;Humidity;BMP_temperature;BMP_pressure;BME280_temperature;BME280_humidity;BME280_pressure;Samples;Min_cycle;Max_cycle;Signal;HPM_P1;HPM_P2
2021/11/21 00:00:58;;;;;;;26.20;16.52;;;4.20;99.90;;;;;;5092089;28;20081;-66
2021/11/21 00:03:23;;;;;;;27.00;16.23;;;4.10;99.90;;;;;;5091737;28;20028;-67
2021/11/21 00:05:49;;;;;;;24.35;16.13;;;4.10;99.90;;;;;;5091173;28;20105;-66
2021/11/21 00:08:15;;;;;;;25.67;16.20;;;4.10;99.90;;;;;;5091694;28;20025;-66
2021/11/21 00:10:41;;;;;;;24.27;15.63;;;4.10;99.90;;;;;;5090952;28;20063;-66
2021/11/21 00:13:08;;;;;;;24.48;16.40;;;4.10;99.90;;;;;;5091934;28;20023;-66
2021/11/21 00:15:35;;;;;;;25.48;17.42;;;4.00;99.90;;;;;;5088478;28;20423;-67
2021/11/21 00:18:03;;;;;;;25.42;16.77;;;4.00;99.90;;;;;;5091412;28;20715;-66
2021/11/21 00:20:29;;;;;;;24.05;16.25;;;4.00;99.90;;;;;;5091908;28;20032;-66
2021/11/21 00:22:54;;;;;;;23.15;14.13;;;4.00;99.90;;;;;;5090006;28;20035;-66
2021/11/21 00:25:21;;;;;;;25.95;16.38;;;4.00;99.90;;;;;;5091386;28;20024;-66
2021/11/21 00:27:46;;;;;;;20.70;13.50;;;4.00;99.90;;;;;;5090423;28;20055;-64
2021/11/21 00:30:12;;;;;;;24.05;15.55;;;4.00;99.90;;;;;;5091766;28;20058;-64
2021/11/21 00:32:38;;;;;;;20.98;13.68;;;4.00;99.90;;;;;;5090887;28;20423;-64
2021/11/21 00:35:04;;;;;;;22.02;14.18;;;4.00;99.90;;;;;;5091422;28;20521;-64
2021/11/21 00:37:36;;;;;;;20.65;14.50;;;4.00;99.90;;;;;;5091394;28;20070;-64
2021/11/21 00:40:04;;;;;;;22.60;15.90;;;4.10;99.90;;;;;;5090351;28;20534;-64
2021/11/21 00:42:34;;;;;;;24.05;15.63;;;4.10;99.90;;;;;;5089858;28;20090;-65
2021/11/21 00:45:02;;;;;;;23.42;15.88;;;4.10;99.90;;;;;;5090915;28;20024;-64
2021/11/21 00:47:27;;;;;;;23.33;15.13;;;4.00;99.90;;;;;;5089749;28;20382;-64
2021/11/21 00:49:53;;;;;;;25.63;16.25;;;3.90;99.90;;;;;;5089744;28;20095;-64
2021/11/21 00:52:20;;;;;;;23.70;15.63;;;4.00;99.90;;;;;;5090824;28;20020;-64
2021/11/21 00:55:05;;;;;;;22.70;15.13;;;3.90;99.90;;;;;;5089705;28;20039;-64
2021/11/21 00:57:33;;;;;;;25.13;16.33;;;3.90;99.90;;;;;;5087009;28;20500;-64
2021/11/21 00:59:59;;;;;;;24.55;15.48;;;3.90;99.90;;;;;;5089028;28;20027;-64
2021/11/21 01:02:24;;;;;;;23.95;15.82;;;3.80;99.90;;;;;;5091558;28;20036;-64
2021/11/21 01:04:50;;;;;;;25.48;15.10;;;3.90;99.90;;;;;;5089983;28;20148;-64
2021/11/21 01:07:17;;;;;;;22.00;15.80;;;3.90;99.90;;;;;;5089960;28;20687;-64
2021/11/21 01:09:43;;;;;;;25.10;15.77;;;3.90;99.90;;;;;;5089878;28;20131;-64
2021/11/21 01:12:10;;;;;;;24.30;16.20;;;3.90;99.90;;;;;;5090620;28;20043;-64
2021/11/21 01:14:37;;;;;;;23.00;15.13;;;3.90;99.90;;;;;;5089793;28;20036;-64
2021/11/21 01:17:04;;;;;;;26.35;15.85;;;3.80;99.90;;;;;;5090862;28;20040;-64
2021/11/21 01:19:36;;;;;;;23.38;15.80;;;3.80;99.90;;;;;;5090372;28;20024;-64
2021/11/21 01:22:03;;;;;;;24.02;16.33;;;3.80;99.90;;;;;;5090406;28;20109;-64
2021/11/21 01:24:31;;;;;;;24.30;15.52;;;3.80;99.90;;;;;;5090449;28;20119;-64
2021/11/21 01:26:57;;;;;;;21.67;15.32;;;3.80;99.90;;;;;;5089773;28;20089;-64
2021/11/21 01:29:23;;;;;;;25.33;16.02;;;3.80;99.90;;;;;;5090536;28;20489;-64
2021/11/21 01:31:48;;;;;;;23.42;15.77;;;3.80;99.90;;;;;;5089456;28;20069;-65
2021/11/21 01:34:15;;;;;;;22.33;14.77;;;3.80;99.90;;;;;;5090291;28;20561;-65
2021/11/21 01:36:41;;;;;;;25.25;15.75;;;3.80;99.90;;;;;;5089656;28;20031;-65
2021/11/21 01:39:07;;;;;;;23.13;15.10;;;3.80;99.90;;;;;;5089435;28;20024;-65
2021/11/21 01:41:34;;;;;;;23.98;15.02;;;3.80;99.90;;;;;;5089492;28;20491;-65
2021/11/21 01:44:00;;;;;;;23.02;15.02;;;3.80;99.90;;;;;;5089959;28;20035;-65
2021/11/21 01:46:38;;;;;;;21.17;14.75;;;3.70;99.90;;;;;;5089894;28;20044;-65
2021/11/21 01:49:05;;;;;;;23.75;15.05;;;3.70;99.90;;;;;;5088557;28;20016;-65
2021/11/21 01:51:34;;;;;;;22.42;14.68;;;3.80;99.90;;;;;;5089214;28;20067;-65
2021/11/21 01:53:59;;;;;;;21.90;13.93;;;3.70;99.90;;;;;;5094612;28;20031;-65
2021/11/21 01:56:26;;;;;;;21.17;13.73;;;3.80;99.90;;;;;;5096497;28;20039;-65
2021/11/21 01:58:54;;;;;;;19.33;13.00;;;3.80;99.90;;;;;;5096245;28;20032;-65
2021/11/21 02:01:20;;;;;;;17.40;12.73;;;3.80;99.90;;;;;;5097254;28;20032;-65
2021/11/21 02:03:46;;;;;;;16.17;11.73;;;3.70;99.90;;;;;;5096015;28;20135;-65
2021/11/21 02:06:12;;;;;;;16.40;10.82;;;3.80;99.90;;;;;;5096859;28;20574;-65
2021/11/21 02:08:37;;;;;;;19.45;12.70;;;3.80;99.90;;;;;;5095940;28;20031;-65
2021/11/21 02:11:04;;;;;;;19.50;13.43;;;3.80;99.90;;;;;;5097488;28;20035;-65
2021/11/21 02:13:29;;;;;;;20.88;13.38;;;3.80;99.90;;;;;;5098204;28;20118;-65
2021/11/21 02:15:55;;;;;;;16.65;11.70;;;3.80;99.90;;;;;;5097617;28;20103;-64
2021/11/21 02:18:24;;;;;;;17.60;11.52;;;3.70;99.90;;;;;;5098150;28;20077;-65
2021/11/21 02:20:55;;;;;;;18.57;13.13;;;3.70;99.90;;;;;;5097519;28;20031;-65
2021/11/21 02:23:22;;;;;;;;;;;3.70;99.90;;;;;;5098591;28;20341;-65
2021/11/21 02:25:48;;;;;;;16.40;11.70;;;3.70;99.90;;;;;;5097358;28;19904;-65
2021/11/21 02:28:14;;;;;;;15.55;11.73;;;3.60;99.90;;;;;;5098024;28;20043;-65
2021/11/21 02:30:40;;;;;;;18.98;12.15;;;3.60;99.90;;;;;;5097102;28;20039;-65
2021/11/21 02:33:12;;;;;;;20.48;13.13;;;3.60;99.90;;;;;;5098335;28;20033;-64
2021/11/21 02:35:40;;;;;;;18.80;11.82;;;3.60;99.90;;;;;;5097316;28;20095;-65
2021/11/21 02:38:08;;;;;;;18.55;12.88;;;3.60;99.90;;;;;;5097916;28;20377;-64
2021/11/21 02:40:35;;;;;;;19.70;12.45;;;3.60;99.90;;;;;;5097082;28;20036;-65
2021/11/21 02:43:01;;;;;;;19.35;12.77;;;3.60;99.90;;;;;;5097957;28;20028;-65
2021/11/21 02:45:27;;;;;;;19.17;12.60;;;3.60;99.90;;;;;;5097837;28;20040;-65
2021/11/21 02:47:53;;;;;;;18.23;12.50;;;3.60;99.90;;;;;;5096723;28;20042;-64
2021/11/21 02:50:21;;;;;;;17.90;11.80;;;3.60;99.90;;;;;;5097676;28;20038;-64
2021/11/21 02:52:48;;;;;;;17.90;11.55;;;3.60;99.90;;;;;;5084815;28;20036;-65
2021/11/21 02:55:14;;;;;;;18.33;12.35;;;3.60;99.90;;;;;;5089854;28;20031;-65
2021/11/21 02:57:40;;;;;;;18.88;12.38;;;3.60;99.90;;;;;;5077609;28;20437;-65
2021/11/21 03:00:10;;;;;;;15.98;11.75;;;3.60;99.90;;;;;;5078684;28;20032;-65
2021/11/21 03:02:43;;;;;;;16.52;11.75;;;3.60;99.90;;;;;;5076542;28;20021;-64
2021/11/21 03:05:10;;;;;;;19.77;11.95;;;3.60;99.90;;;;;;5091135;28;20020;-64
2021/11/21 03:07:36;;;;;;;17.73;12.30;;;3.50;99.90;;;;;;5094363;28;20414;-65
2021/11/21 03:10:02;;;;;;;18.92;12.45;;;3.50;99.90;;;;;;5094371;28;20032;-64
2021/11/21 03:12:28;;;;;;;18.27;11.90;;;3.50;99.90;;;;;;5094278;28;20077;-65
2021/11/21 03:14:54;;;;;;;17.05;11.73;;;3.50;99.90;;;;;;5092103;28;20099;-65
2021/11/21 03:17:21;;;;;;;17.77;11.57;;;3.50;99.90;;;;;;5094495;28;20053;-65
2021/11/21 03:19:47;;;;;;;18.42;11.40;;;3.50;99.90;;;;;;5093460;28;20036;-65
2021/11/21 03:22:13;;;;;;;17.15;11.48;;;3.40;99.90;;;;;;5094020;28;20638;-65
2021/11/21 03:24:39;;;;;;;17.63;11.93;;;3.40;99.90;;;;;;5093501;28;20024;-65
2021/11/21 03:27:05;;;;;;;19.42;12.38;;;3.40;99.90;;;;;;5094003;28;20028;-64
2021/11/21 03:29:32;;;;;;;19.83;12.55;;;3.30;99.90;;;;;;5093891;28;20032;-64
2021/11/21 03:31:59;;;;;;;21.42;13.32;;;3.30;99.90;;;;;;5093318;28;20027;-64
2021/11/21 03:34:25;;;;;;;20.05;13.05;;;3.30;99.90;;;;;;5093944;28;20093;-65
2021/11/21 03:36:51;;;;;;;21.15;13.25;;;3.30;99.90;;;;;;5092603;28;20123;-64
2021/11/21 03:39:17;;;;;;;26.45;15.60;;;3.30;99.90;;;;;;5094261;28;20520;-64
2021/11/21 03:41:43;;;;;;;24.27;15.27;;;3.30;99.90;;;;;;5093325;28;20032;-65
2021/11/21 03:44:09;;;;;;;20.60;13.00;;;3.30;99.90;;;;;;5093502;28;20423;-64
2021/11/21 03:46:37;;;;;;;20.42;13.20;;;3.30;99.90;;;;;;5092835;28;20089;-65
2021/11/21 03:49:04;;;;;;;20.45;13.60;;;3.30;99.90;;;;;;5094101;28;20066;-64
2021/11/21 03:51:31;;;;;;;21.25;13.50;;;3.30;99.90;;;;;;5094023;28;20032;-65
2021/11/21 03:53:56;;;;;;;21.13;13.07;;;3.30;99.90;;;;;;5092384;28;20048;-64
2021/11/21 03:56:23;;;;;;;18.85;12.15;;;3.30;99.90;;;;;;5093064;28;20071;-65
2021/11/21 03:58:49;;;;;;;19.50;12.20;;;3.20;99.90;;;;;;5092303;28;20028;-65
2021/11/21 04:01:14;;;;;;;20.52;12.95;;;3.20;99.90;;;;;;5093505;28;20369;-65
2021/11/21 04:03:42;;;;;;;18.45;11.45;;;3.20;99.90;;;;;;5092089;28;20024;-65
2021/11/21 04:06:09;;;;;;;17.90;11.95;;;3.30;99.90;;;;;;5092616;28;20032;-64
2021/11/21 04:08:42;;;;;;;21.90;12.98;;;3.20;99.90;;;;;;5092466;28;20460;-65
2021/11/21 04:11:07;;;;;;;19.42;12.85;;;3.20;99.90;;;;;;5093495;28;20028;-64
2021/11/21 04:13:35;;;;;;;18.33;11.38;;;3.20;99.90;;;;;;5092024;28;20434;-64
2021/11/21 04:16:01;;;;;;;21.10;13.38;;;3.20;99.90;;;;;;5091507;28;20024;-65
2021/11/21 04:18:27;;;;;;;20.15;12.88;;;3.20;99.90;;;;;;5093077;28;20073;-64
2021/11/21 04:20:53;;;;;;;22.55;13.68;;;3.10;99.90;;;;;;5092633;28;20036;-65
2021/11/21 04:23:20;;;;;;;20.65;12.98;;;3.10;99.90;;;;;;5093118;28;20024;-64
2021/11/21 04:25:46;;;;;;;20.27;12.32;;;3.10;99.90;;;;;;5092255;28;20452;-65
2021/11/21 04:28:12;;;;;;;22.00;12.55;;;3.10;99.90;;;;;;5093167;28;20050;-65
2021/11/21 04:30:39;;;;;;;19.73;12.55;;;3.10;99.90;;;;;;5092419;28;20032;-66
2021/11/21 04:33:05;;;;;;;21.70;12.95;;;3.00;99.90;;;;;;5092950;28;20082;-65
2021/11/21 04:35:30;;;;;;;18.17;11.90;;;3.00;99.90;;;;;;5093071;28;20028;-65
2021/11/21 04:37:56;;;;;;;21.98;13.82;;;3.00;99.90;;;;;;5092206;28;20027;-64
2021/11/21 04:40:22;;;;;;;23.75;13.50;;;3.00;99.90;;;;;;5092158;28;20461;-64
2021/11/21 04:42:48;;;;;;;24.85;14.63;;;3.00;99.90;;;;;;5092283;28;20016;-64
2021/11/21 04:45:15;;;;;;;23.02;13.55;;;2.90;99.90;;;;;;5104327;28;20024;-64
2021/11/21 04:47:41;;;;;;;23.33;13.68;;;2.90;99.90;;;;;;5092110;28;20098;-65
2021/11/21 04:50:09;;;;;;;21.63;12.82;;;2.90;99.90;;;;;;5092802;28;20106;-64
2021/11/21 04:52:39;;;;;;;21.85;13.38;;;2.90;99.90;;;;;;5091707;28;20461;-64
2021/11/21 04:55:06;;;;;;;19.58;12.65;;;2.90;99.90;;;;;;5091695;28;20038;-64
2021/11/21 04:57:32;;;;;;;18.08;11.38;;;2.90;99.90;;;;;;5091629;28;20028;-65
2021/11/21 04:59:58;;;;;;;19.95;12.40;;;2.90;99.90;;;;;;5091512;28;20103;-65
2021/11/21 05:02:24;;;;;;;16.55;10.75;;;2.80;99.90;;;;;;5092039;28;20067;-64
2021/11/21 05:04:49;;;;;;;18.13;11.18;;;2.80;99.90;;;;;;5091519;28;20036;-65
2021/11/21 05:07:15;;;;;;;21.33;12.25;;;2.80;99.90;;;;;;5091721;28;20104;-65
2021/11/21 05:09:41;;;;;;;18.80;12.50;;;2.80;99.90;;;;;;5090976;28;20020;-65
2021/11/21 05:12:07;;;;;;;15.68;11.10;;;2.80;99.90;;;;;;5092317;28;20036;-65
2021/11/21 05:14:33;;;;;;;15.98;10.48;;;2.80;99.90;;;;;;5092144;28;20516;-64
2021/11/21 05:17:00;;;;;;;14.85;9.50;;;2.70;99.90;;;;;;5091074;28;20154;-64
2021/11/21 05:19:26;;;;;;;15.88;10.00;;;2.70;99.90;;;;;;5091249;28;20111;-64
2021/11/21 05:21:52;;;;;;;18.50;11.48;;;2.70;99.90;;;;;;5091388;28;20052;-65
2021/11/21 05:24:23;;;;;;;15.48;10.57;;;2.70;99.90;;;;;;5090854;28;20024;-65
2021/11/21 05:26:49;;;;;;;15.88;9.70;;;2.70;99.90;;;;;;5090766;28;20424;-64
2021/11/21 05:29:15;;;;;;;16.55;9.95;;;2.70;99.90;;;;;;5091359;28;20036;-64
2021/11/21 05:31:41;;;;;;;13.20;8.80;;;2.70;99.90;;;;;;5090718;28;20035;-65
2021/11/21 05:34:06;;;;;;;15.73;10.05;;;2.70;99.90;;;;;;5090308;28;20055;-65
2021/11/21 05:36:32;;;;;;;14.25;9.70;;;2.70;99.90;;;;;;5091501;28;20390;-64
2021/11/21 05:38:58;;;;;;;14.55;9.90;;;2.70;99.90;;;;;;5090684;28;20110;-64
2021/11/21 05:41:24;;;;;;;13.90;9.30;;;2.70;99.90;;;;;;5091952;28;20470;-64
2021/11/21 05:43:50;;;;;;;14.95;10.00;;;2.60;99.90;;;;;;5090623;28;20032;-65
2021/11/21 05:46:16;;;;;;;15.45;10.30;;;2.60;99.90;;;;;;5091543;28;20051;-64
2021/11/21 05:48:41;;;;;;;12.13;8.68;;;2.60;99.90;;;;;;5090573;28;20073;-65
2021/11/21 05:51:07;;;;;;;12.48;8.95;;;2.70;99.90;;;;;;5091443;28;20042;-64
2021/11/21 05:53:33;;;;;;;11.75;7.95;;;2.70;99.90;;;;;;5091340;28;20038;-65
2021/11/21 05:55:58;;;;;;;12.88;9.05;;;2.70;99.90;;;;;;5090392;28;20020;-65
2021/11/21 05:58:25;;;;;;;11.90;8.50;;;2.70;99.90;;;;;;5091539;28;20541;-64
2021/11/21 06:00:52;;;;;;;12.77;8.95;;;2.60;99.90;;;;;;5090597;28;20389;-64
2021/11/21 06:03:17;;;;;;;13.18;8.75;;;2.60;99.90;;;;;;5091087;28;20020;-65
2021/11/21 06:05:43;;;;;;;13.55;7.78;;;2.60;99.90;;;;;;5090491;28;20020;-65
2021/11/21 06:08:09;;;;;;;13.60;8.65;;;2.50;99.90;;;;;;5091370;28;20034;-64
2021/11/21 06:10:35;;;;;;;14.68;9.30;;;2.50;99.90;;;;;;5090564;28;20035;-65
2021/11/21 06:13:01;;;;;;;17.17;9.68;;;2.50;99.90;;;;;;5091304;28;20790;-65
2021/11/21 06:15:27;;;;;;;14.52;8.43;;;2.50;99.90;;;;;;5091579;28;20031;-64
2021/11/21 06:17:53;;;;;;;13.65;8.98;;;2.50;99.90;;;;;;5090524;28;20031;-65
2021/11/21 06:20:19;;;;;;;18.08;9.50;;;2.50;99.90;;;;;;5090917;28;20020;-65
2021/11/21 06:22:45;;;;;;;16.90;9.52;;;2.50;99.90;;;;;;5090277;28;20036;-64
2021/11/21 06:25:11;;;;;;;19.27;9.70;;;2.50;99.90;;;;;;5091275;28;20025;-65
2021/11/21 06:27:37;;;;;;;18.02;9.88;;;2.50;99.90;;;;;;5091482;28;20403;-64
2021/11/21 06:30:05;;;;;;;17.75;9.40;;;2.50;99.90;;;;;;5090799;28;20040;-64
2021/11/21 06:32:31;;;;;;;16.85;9.77;;;2.50;99.90;;;;;;5090045;28;20053;-64
2021/11/21 06:34:57;;;;;;;16.40;9.07;;;2.50;99.90;;;;;;5095170;28;20461;-64
2021/11/21 06:37:23;;;;;;;20.02;9.85;;;2.50;99.90;;;;;;5098720;28;20058;-64
2021/11/21 06:39:50;;;;;;;15.73;8.77;;;2.50;99.90;;;;;;5091173;28;20058;-65
2021/11/21 06:42:16;;;;;;;18.58;9.60;;;2.60;99.90;;;;;;5094984;28;20480;-65
2021/11/21 06:44:43;;;;;;;17.63;9.85;;;2.60;99.90;;;;;;5094526;28;20077;-65
2021/11/21 06:47:09;;;;;;;15.75;8.40;;;2.60;99.90;;;;;;5094125;28;20044;-65
2021/11/21 06:49:36;;;;;;;17.08;9.13;;;2.50;99.90;;;;;;5094564;28;20522;-64
2021/11/21 06:52:02;;;;;;;20.75;9.27;;;2.60;99.90;;;;;;5093712;28;20121;-64
2021/11/21 06:54:27;;;;;;;20.30;10.20;;;2.60;99.90;;;;;;5094382;28;20036;-64
2021/11/21 06:56:53;;;;;;;21.55;9.93;;;2.60;99.90;;;;;;5093614;28;20492;-65
2021/11/21 06:59:19;;;;;;;18.35;9.75;;;2.60;99.90;;;;;;5094038;28;20040;-65
2021/11/21 07:01:44;;;;;;;16.40;10.55;;;2.70;99.90;;;;;;5094151;28;20028;-65
2021/11/21 07:04:11;;;;;;;17.98;10.95;;;2.70;99.90;;;;;;5094301;28;20473;-64
2021/11/21 07:06:39;;;;;;;20.02;12.32;;;2.70;99.90;;;;;;5094491;28;20032;-65
2021/11/21 07:09:11;;;;;;;18.33;11.93;;;2.60;99.90;;;;;;5093422;28;20465;-65
2021/11/21 07:11:38;;;;;;;17.83;11.10;;;2.60;99.90;;;;;;5094270;28;20034;-67
2021/11/21 07:14:05;;;;;;;18.25;10.20;;;2.60;99.90;;;;;;5092914;28;20843;-66
2021/11/21 07:16:31;;;;;;;18.50;10.38;;;2.60;99.90;;;;;;5091884;28;20032;-65
2021/11/21 07:18:57;;;;;;;18.58;11.35;;;2.60;99.90;;;;;;5091757;28;20028;-64
2021/11/21 07:21:29;;;;;;;17.50;11.02;;;2.60;99.90;;;;;;5088530;28;20427;-65
2021/11/21 07:23:54;;;;;;;20.52;11.25;;;2.60;99.90;;;;;;5088837;28;20173;-65
2021/11/21 07:26:20;;;;;;;17.80;11.02;;;2.60;99.90;;;;;;5092522;28;20107;-65
2021/11/21 07:28:46;;;;;;;19.33;11.80;;;2.60;99.90;;;;;;5091182;28;20028;-65
2021/11/21 07:31:12;;;;;;;22.40;12.30;;;2.70;99.90;;;;;;5092621;28;20446;-66
2021/11/21 07:33:38;;;;;;;22.15;12.30;;;2.70;99.90;;;;;;5092717;28;20032;-67
2021/11/21 07:36:04;;;;;;;20.90;12.00;;;2.70;99.90;;;;;;5091357;28;20020;-65
2021/11/21 07:38:30;;;;;;;18.35;11.57;;;2.70;99.90;;;;;;5092749;28;20024;-66
2021/11/21 07:40:56;;;;;;;19.67;11.70;;;2.70;99.90;;;;;;5091921;28;20032;-65
2021/11/21 07:43:22;;;;;;;22.05;11.95;;;2.70;99.90;;;;;;5091994;28;20077;-67
2021/11/21 07:45:48;;;;;;;21.90;12.20;;;2.70;99.90;;;;;;5089962;28;20396;-67
2021/11/21 07:48:14;;;;;;;20.70;11.25;;;2.70;99.90;;;;;;5092559;28;20545;-66
2021/11/21 07:50:40;;;;;;;21.33;11.73;;;2.70;99.90;;;;;;5092142;28;20036;-67
2021/11/21 07:53:08;;;;;;;21.92;12.27;;;2.80;99.90;;;;;;5091122;28;20031;-67
2021/11/21 07:55:34;;;;;;;18.95;10.45;;;2.80;99.90;;;;;;5092588;28;20020;-65
2021/11/21 07:57:59;;;;;;;22.95;11.98;;;2.80;99.90;;;;;;5091510;28;20035;-67
2021/11/21 08:00:25;;;;;;;19.30;10.05;;;2.90;99.90;;;;;;5092701;28;20161;-66
2021/11/21 08:02:51;;;;;;;21.75;11.75;;;2.90;99.90;;;;;;5091968;28;20020;-67
2021/11/21 08:05:17;;;;;;;22.02;11.13;;;3.00;99.90;;;;;;5091787;28;20518;-66
2021/11/21 08:07:45;;;;;;;20.75;10.40;;;3.00;99.90;;;;;;5091464;28;20039;-68
2021/11/21 08:10:11;;;;;;;21.77;12.23;;;3.10;99.90;;;;;;5089834;28;20030;-66
2021/11/21 08:12:37;;;;;;;22.27;13.30;;;3.10;99.90;;;;;;5090433;28;20086;-67
2021/11/21 08:15:04;;;;;;;23.85;13.73;;;3.10;99.90;;;;;;5091838;28;20039;-66
2021/11/21 08:17:30;;;;;;;26.25;14.50;;;3.00;99.90;;;;;;5091423;28;20029;-65
2021/11/21 08:19:56;;;;;;;24.65;14.38;;;3.00;99.90;;;;;;5090536;28;20039;-66
2021/11/21 08:22:22;;;;;;;23.77;14.65;;;3.00;99.90;;;;;;5089449;28;20023;-68
2021/11/21 08:24:48;;;;;;;21.98;14.18;;;3.00;99.90;;;;;;5089105;28;20106;-66
2021/11/21 08:27:14;;;;;;;26.92;14.43;;;3.00;99.90;;;;;;5091591;28;20438;-66
2021/11/21 08:29:40;;;;;;;26.33;14.75;;;3.00;99.90;;;;;;5092461;28;20032;-66
2021/11/21 08:32:08;;;;;;;25.40;14.43;;;3.00;99.90;;;;;;5091509;28;20028;-66
2021/11/21 08:34:33;;;;;;;28.02;15.00;;;2.90;99.90;;;;;;5091003;28;20820;-66
2021/11/21 08:37:00;;;;;;;30.70;17.83;;;2.90;99.90;;;;;;5089686;28;20051;-66
2021/11/21 08:39:25;;;;;;;27.42;15.82;;;2.90;99.90;;;;;;5090921;28;20028;-68
2021/11/21 08:41:53;;;;;;;29.08;15.32;;;2.90;99.90;;;;;;5090222;28;20024;-66
2021/11/21 08:44:20;;;;;;;31.58;17.27;;;3.00;99.90;;;;;;5090683;28;20039;-66
2021/11/21 08:46:46;;;;;;;30.88;16.70;;;3.00;99.90;;;;;;5088523;28;20069;-67
2021/11/21 08:49:13;;;;;;;35.65;17.58;;;3.00;99.90;;;;;;5090318;28;20470;-67
2021/11/21 08:51:40;;;;;;;39.28;19.65;;;3.00;99.90;;;;;;5090154;28;20531;-66
2021/11/21 08:54:07;;;;;;;44.92;20.15;;;3.00;99.90;;;;;;5089067;28;20024;-68
2021/11/21 08:56:34;;;;;;;43.15;20.20;;;3.10;99.90;;;;;;5090491;28;20024;-67
2021/11/21 08:58:59;;;;;;;41.83;19.98;;;3.10;99.90;;;;;;5088522;28;20636;-67
2021/11/21 09:01:25;;;;;;;42.03;19.50;;;3.10;99.90;;;;;;5090697;28;20115;-67
2021/11/21 09:03:51;;;;;;;33.78;18.35;;;3.20;99.90;;;;;;5088572;28;20032;-68
2021/11/21 09:06:17;;;;;;;39.97;18.40;;;3.30;99.90;;;;;;5089937;28;20028;-67
2021/11/21 09:08:49;;;;;;;38.88;19.02;;;3.30;99.90;;;;;;5089636;28;20032;-68
2021/11/21 09:11:14;;;;;;;37.75;19.77;;;3.30;99.90;;;;;;5090520;28;20034;-67
2021/11/21 09:13:40;;;;;;;35.97;18.45;;;3.30;99.90;;;;;;5090253;28;20028;-67
2021/11/21 09:16:08;;;;;;;30.38;16.45;;;3.30;99.90;;;;;;5088893;28;20032;-68
2021/11/21 09:18:35;;;;;;;35.08;17.27;;;3.30;99.90;;;;;;5090139;28;20140;-67
2021/11/21 09:21:00;;;;;;;31.30;15.65;;;3.30;99.90;;;;;;5089620;28;20053;-68
2021/11/21 09:23:26;;;;;;;27.35;14.48;;;3.40;99.90;;;;;;5089587;28;20028;-67
2021/11/21 09:25:53;;;;;;;26.00;14.60;;;3.40;99.90;;;;;;5089554;28;20228;-67
2021/11/21 09:28:27;;;;;;;26.38;14.15;;;3.40;99.90;;;;;;5089468;28;20032;-67
2021/11/21 09:30:55;;;;;;;25.13;13.10;;;3.50;99.90;;;;;;5088837;28;20078;-69
2021/11/21 09:33:21;;;;;;;21.02;12.00;;;3.50;99.90;;;;;;5090007;28;20421;-68
2021/11/21 09:35:47;;;;;;;22.15;12.38;;;3.60;99.90;;;;;;5089740;28;20024;-67
2021/11/21 09:38:14;;;;;;;20.65;12.27;;;3.60;99.90;;;;;;5089311;28;20039;-69
2021/11/21 09:40:40;;;;;;;19.60;11.18;;;3.60;99.90;;;;;;5088679;28;20038;-69
2021/11/21 09:43:06;;;;;;;21.30;12.18;;;3.70;99.90;;;;;;5089490;28;20084;-69
2021/11/21 09:45:31;;;;;;;21.42;11.23;;;3.70;99.90;;;;;;5089789;28;20032;-68
2021/11/21 09:48:00;;;;;;;19.17;10.93;;;3.70;99.90;;;;;;5088871;28;20412;-68
2021/11/21 09:50:28;;;;;;;19.88;10.77;;;3.70;99.90;;;;;;5089957;28;20130;-68
2021/11/21 09:52:54;;;;;;;21.20;10.90;;;3.70;99.90;;;;;;5088629;28;20494;-69
2021/11/21 09:55:21;;;;;;;21.95;11.38;;;3.80;99.90;;;;;;5089832;28;20024;-68
2021/11/21 09:57:48;;;;;;;19.73;11.38;;;3.70;99.90;;;;;;5088880;28;20028;-68
2021/11/21 10:00:15;;;;;;;21.23;11.48;;;3.70;99.90;;;;;;5089499;28;20032;-67
2021/11/21 10:02:48;;;;;;;20.77;11.65;;;3.70;99.90;;;;;;5089379;28;20039;-66
2021/11/21 10:05:24;;;;;;;17.27;11.15;;;3.80;99.90;;;;;;5089457;28;20016;-66
2021/11/21 10:08:02;;;;;;;17.45;10.45;;;3.80;99.90;;;;;;5090881;28;20051;-63
2021/11/21 10:10:43;;;;;;;16.15;8.88;;;3.90;99.90;;;;;;5091457;28;20026;-64
2021/11/21 10:13:42;;;;;;;17.52;10.50;;;3.90;99.90;;;;;;5088374;28;20081;-63
2021/11/21 10:16:31;;;;;;;16.90;10.40;;;4.00;99.90;;;;;;5046149;28;20043;-68
2021/11/21 10:19:08;;;;;;;14.80;9.95;;;4.00;99.90;;;;;;5089767;28;20047;-68
2021/11/21 10:21:52;;;;;;;15.05;9.45;;;4.00;99.90;;;;;;5093294;28;20053;-67
2021/11/21 10:24:23;;;;;;;16.42;10.25;;;4.00;99.90;;;;;;5092755;28;20032;-67
2021/11/21 10:27:05;;;;;;;18.33;9.80;;;4.10;99.90;;;;;;5092702;28;20044;-67
2021/11/21 10:29:40;;;;;;;15.45;9.55;;;4.20;99.90;;;;;;5093059;28;20110;-66
2021/11/21 10:32:20;;;;;;;18.15;10.00;;;4.10;99.90;;;;;;5092247;28;20036;-65
2021/11/21 10:34:51;;;;;;;;;;;4.20;99.90;;;;;;5090874;28;20028;-68
2021/11/21 10:37:18;;;;;;;16.02;9.50;;;4.20;99.90;;;;;;5090539;28;20353;-67
2021/11/21 10:39:50;;;;;;;16.05;9.63;;;4.20;99.90;;;;;;5092231;28;20032;-68
2021/11/21 10:42:16;;;;;;;18.48;10.00;;;4.20;99.90;;;;;;5091925;28;20039;-64
2021/11/21 10:44:51;;;;;;;15.27;9.90;;;4.20;99.90;;;;;;5089920;28;20021;-64
2021/11/21 10:47:17;;;;;;;19.67;9.70;;;4.20;99.90;;;;;;5091782;28;20489;-67
2021/11/21 10:49:52;;;;;;;18.25;10.13;;;4.20;99.90;;;;;;5092840;28;20024;-67
2021/11/21 10:52:22;;;;;;;18.05;9.52;;;4.30;99.90;;;;;;5092375;28;20036;-67
2021/11/21 10:54:52;;;;;;;21.40;10.90;;;4.30;99.90;;;;;;5091606;28;20074;-68
2021/11/21 10:57:25;;;;;;;18.67;11.00;;;4.30;99.90;;;;;;5092978;28;20024;-67
2021/11/21 11:00:14;;;;;;;16.95;10.30;;;4.20;99.90;;;;;;5090555;28;20024;-68
2021/11/21 11:02:42;;;;;;;20.83;12.32;;;4.20;99.90;;;;;;5092052;28;20043;-67
2021/11/21 11:05:08;;;;;;;21.35;13.57;;;4.20;99.90;;;;;;5094025;28;20517;-67
2021/11/21 11:07:39;;;;;;;20.27;13.07;;;4.00;99.90;;;;;;5091903;28;20073;-68
2021/11/21 11:10:15;;;;;;;25.42;13.75;;;3.90;99.90;;;;;;5091491;28;20016;-67
2021/11/21 11:12:45;;;;;;;25.15;13.80;;;3.90;99.90;;;;;;5088727;28;20111;-67
2021/11/21 11:15:11;;;;;;;29.67;14.60;;;3.80;99.90;;;;;;5091738;28;20062;-68
2021/11/21 11:17:38;;;;;;;23.02;13.77;;;3.80;99.90;;;;;;5091340;28;20036;-68
2021/11/21 11:20:07;;;;;;;22.63;13.20;;;3.70;99.90;;;;;;5091330;28;20039;-68
2021/11/21 11:22:34;;;;;;;23.42;13.77;;;3.70;99.90;;;;;;5091349;28;20024;-69
2021/11/21 11:25:03;;;;;;;21.77;13.32;;;3.60;99.90;;;;;;5090141;28;20119;-69
2021/11/21 11:27:32;;;;;;;26.85;13.18;;;3.60;99.90;;;;;;5091623;28;20488;-67
2021/11/21 11:29:58;;;;;;;24.85;12.85;;;3.70;99.90;;;;;;5091014;28;20029;-68
2021/11/21 11:32:37;;;;;;;24.73;13.57;;;3.60;99.90;;;;;;5091305;28;20081;-68
2021/11/21 11:35:18;;;;;;;25.73;12.65;;;3.60;99.90;;;;;;5088460;28;20042;-68
2021/11/21 11:37:53;;;;;;;22.55;12.98;;;3.70;99.90;;;;;;5088067;28;20027;-68
2021/11/21 11:40:28;;;;;;;21.73;13.27;;;3.60;99.90;;;;;;5091506;28;20028;-68
2021/11/21 11:42:58;;;;;;;23.38;13.60;;;3.60;99.90;;;;;;5090725;28;20149;-68
2021/11/21 11:45:44;;;;;;;25.58;13.63;;;3.60;99.90;;;;;;5089261;28;20109;-68
2021/11/21 11:48:40;;;;;;;26.40;13.48;;;3.60;99.90;;;;;;5091058;28;20044;-68
2021/11/21 11:51:21;;;;;;;18.48;9.43;;;3.60;99.90;;;;;;5086864;28;20044;-72
2021/11/21 11:53:53;;;;;;;26.00;12.30;;;3.70;99.90;;;;;;5087007;28;20396;-68
2021/11/21 11:56:30;;;;;;;26.38;13.77;;;3.80;99.90;;;;;;5091280;28;20127;-68
2021/11/21 11:59:04;;;;;;;25.08;14.02;;;3.70;99.90;;;;;;5090147;28;20480;-66
2021/11/21 12:01:39;;;;;;;27.65;14.02;;;3.70;99.90;;;;;;5090365;28;20035;-67
2021/11/21 12:04:12;;;;;;;25.15;13.57;;;3.70;99.90;;;;;;5090173;28;20024;-67
2021/11/21 12:06:47;;;;;;;28.65;13.73;;;3.60;99.90;;;;;;5091294;28;20112;-67
2021/11/21 12:09:16;;;;;;;24.98;13.13;;;3.60;99.90;;;;;;5091607;28;20103;-67
2021/11/21 12:12:01;;;;;;;28.55;14.80;;;3.60;99.90;;;;;;5088431;28;20020;-67
2021/11/21 12:14:29;;;;;;;26.58;13.52;;;3.60;99.90;;;;;;5089482;28;20035;-68
2021/11/21 12:16:57;;;;;;;25.92;11.75;;;3.60;99.90;;;;;;5091469;28;20540;-68
2021/11/21 12:19:48;;;;;;;20.85;10.30;;;3.60;99.90;;;;;;5093401;28;20027;-69
2021/11/21 12:22:32;;;;;;;17.20;8.60;;;3.60;99.90;;;;;;5093465;28;20035;-71
2021/11/21 12:25:04;;;;;;;18.27;8.80;;;3.80;99.90;;;;;;5092596;28;20028;-70
2021/11/21 12:27:35;;;;;;;14.38;7.53;;;4.00;99.90;;;;;;5093424;28;20151;-69
2021/11/21 12:30:25;;;;;;;13.77;8.20;;;3.90;99.90;;;;;;5092469;28;20023;-68
2021/11/21 12:33:02;;;;;;;17.85;8.32;;;4.00;99.90;;;;;;5082172;28;20040;-68
2021/11/21 12:35:33;;;;;;;17.95;10.20;;;4.00;99.90;;;;;;5093276;28;20050;-68
2021/11/21 12:38:21;;;;;;;19.10;9.82;;;4.10;99.90;;;;;;5092741;28;20031;-69
2021/11/21 12:40:54;;;;;;;19.08;10.05;;;4.10;99.90;;;;;;5086790;28;20028;-69
2021/11/21 12:43:21;;;;;;;12.68;7.80;;;4.10;99.90;;;;;;5077672;28;20016;-68